当前位置: 首页>>狼人永久备份地址一 >>www.mov18PLus.C0m

www.mov18PLus.C0m

添加时间:    

而中国科幻电影元年其实就像一个洋葱,并没有一个明确的内核,说是噱头也可以,说是鼓励士气也好,毕竟我们的确等待了很多年。但正如郭帆自己说的:“如果我们每年都有一部又一部好的科幻电影出现,如同好莱坞一样,每年都能看到若干部好的科幻片,这样十年二十年积累下来之后,我们再回头看是哪一年爆发的,我们就可以称之为元年了,现在去定义有点早。”这一点和刘慈欣一样冷静谦虚,比大多数自媒体和嗷嗷叫的粉丝要冷静得多。

“能见度非常好”根据当时天气,ZUUU 140000Z 00000MPS 5000 BR NSC 21/18 Q1004 NOSIG成都能见度只有5000米并且伴随雾霾(mist),能见度并不是非常好。一般能见度在超过10千米时飞行员才会认为能见度不错。

与此相对应,提升债券市场法治化供给成为资本市场深化改革的一项重要任务。尤其是,与债券市场规模扩大相联系的债券违约事件仍有发生。数据显示,2018年末,公司信用类债券违约率为0.8%,低于同期商业银行不良贷款率(1.89%),低于近年来信用债平均违约率1.74%的国际市场水平。2019年,债券违约势头整体趋缓,前期违约风险无序扩散的势头得到初步遏制,但违约规模仍处于历史高位,债券违约进入常态化阶段。相关处置机制的“短板”日益凸显,成为制约债券市场健康发展的痛点。

(四)资产价格和宏观杠杆从宏观审慎管理角度,央行自然还会关注宏观杠杆和资产价格问题。今年一季度伴随天量社融投放,大量信贷进入房地产市场,虽然有利于逆周期调节,但同时也带来了宏观杠杆率上升和房地产市场局部过热情况。4月开始政策再度关注结构性去杠杆,6月开始,政策进一步加大对房地产融资限制,7月政治局会议也明确强调“不将房地产作为短期刺激经济的手段”。由此可见,结构性去杠杆和控制资产泡沫始终是央行关注的问题,也会对传统货币政策运用形成一定影响,例如LPR改革房贷利率单独规定、MLF利率迟迟未动可能就有担心刺激房地产的考虑。

越博动力2019年第一季度主要财务指标翻看越博动力2019年一季度财务报告可以发现,其多项指标均不乐观。公司一季度总营收575.2万元,比上年同期骤减86.97%;尽管归属上市公司股东的净利润同比增加了60.91%,但依然在-1603.3万元的低位,扣非净利仅-2386.7万元。

不过,有业内人士分析认为,由于新能源汽车补贴退坡,目前电动车和燃油车的性价比仍存在较大差距。短期内,如果电动车不能做到与燃油车相当的性价比,在未限制购买燃油车的地区,新能源汽车的销量很难有明显提升。补贴退坡不是唯一挑战。在今年下半年,他们即将迎来诸多竞争对手。蔚来将自己定位为高端品牌,蔚来ES8售价近50万。此前,由于合资品牌布局新能源汽车节奏较慢,在这一价位区间蔚来的竞争对手并不多,但是奥迪e-tron和奔驰EQC即将进入中国市场,他们将与蔚来ES8展开正面较量。

随机推荐